sensor_id;sensor_type;location;lat;lon;timestamp;P1;durP1;ratioP1;P2;durP2;ratioP2
68792;SDS011;55778;54.346;10.210;2023-05-16T00:01:10;6.43;;;2.92;;
68792;SDS011;55778;54.346;10.210;2023-05-16T00:03:36;6.43;;;2.80;;
68792;SDS011;55778;54.346;10.210;2023-05-16T00:06:02;6.20;;;3.15;;
68792;SDS011;55778;54.346;10.210;2023-05-16T00:08:29;5.60;;;3.00;;
68792;SDS011;55778;54.346;10.210;2023-05-16T00:10:54;4.47;;;2.67;;
68792;SDS011;55778;54.346;10.210;2023-05-16T00:13:20;6.85;;;2.80;;
68792;SDS011;55778;54.346;10.210;2023-05-16T00:15:49;7.07;;;2.65;;
68792;SDS011;55778;54.346;10.210;2023-05-16T00:18:16;4.72;;;2.45;;
68792;SDS011;55778;54.346;10.210;2023-05-16T00:20:42;7.65;;;2.80;;
68792;SDS011;55778;54.346;10.210;2023-05-16T00:23:07;5.68;;;2.67;;
68792;SDS011;55778;54.346;10.210;2023-05-16T00:25:33;5.05;;;2.50;;
68792;SDS011;55778;54.346;10.210;2023-05-16T00:27:58;6.05;;;2.75;;
68792;SDS011;55778;54.346;10.210;2023-05-16T00:30:23;6.80;;;2.80;;
68792;SDS011;55778;54.346;10.210;2023-05-16T00:32:49;5.70;;;2.63;;
68792;SDS011;55778;54.346;10.210;2023-05-16T00:35:14;5.57;;;2.50;;
68792;SDS011;55778;54.346;10.210;2023-05-16T00:37:40;5.38;;;2.50;;
68792;SDS011;55778;54.346;10.210;2023-05-16T00:40:05;4.97;;;2.42;;
68792;SDS011;55778;54.346;10.210;2023-05-16T00:42:31;4.40;;;2.50;;
68792;SDS011;55778;54.346;10.210;2023-05-16T00:44:57;4.65;;;2.30;;
68792;SDS011;55778;54.346;10.210;2023-05-16T00:47:22;5.38;;;2.30;;
68792;SDS011;55778;54.346;10.210;2023-05-16T00:49:48;5.82;;;2.33;;
68792;SDS011;55778;54.346;10.210;2023-05-16T00:52:13;4.18;;;2.33;;
68792;SDS011;55778;54.346;10.210;2023-05-16T00:54:39;5.32;;;2.55;;
68792;SDS011;55778;54.346;10.210;2023-05-16T00:57:05;6.57;;;2.58;;
68792;SDS011;55778;54.346;10.210;2023-05-16T00:59:31;4.07;;;2.22;;
68792;SDS011;55778;54.346;10.210;2023-05-16T01:01:57;4.68;;;2.22;;
68792;SDS011;55778;54.346;10.210;2023-05-16T01:04:23;4.45;;;2.25;;
68792;SDS011;55778;54.346;10.210;2023-05-16T01:06:48;4.82;;;2.20;;
68792;SDS011;55778;54.346;10.210;2023-05-16T01:09:14;3.58;;;2.05;;
68792;SDS011;55778;54.346;10.210;2023-05-16T01:11:50;4.90;;;2.35;;
68792;SDS011;55778;54.346;10.210;2023-05-16T01:17:10;6.68;;;2.03;;
68792;SDS011;55778;54.346;10.210;2023-05-16T01:27:46;4.00;;;2.05;;
68792;SDS011;55778;54.346;10.210;2023-05-16T01:30:13;5.93;;;2.35;;
68792;SDS011;55778;54.346;10.210;2023-05-16T01:32:40;3.63;;;2.20;;
68792;SDS011;55778;54.346;10.210;2023-05-16T01:35:06;3.80;;;1.80;;
68792;SDS011;55778;54.346;10.210;2023-05-16T01:37:35;10.75;;;2.40;;
68792;SDS011;55778;54.346;10.210;2023-05-16T01:40:11;5.53;;;2.30;;
68792;SDS011;55778;54.346;10.210;2023-05-16T01:42:43;2.97;;;1.80;;
68792;SDS011;55778;54.346;10.210;2023-05-16T01:45:17;7.60;;;2.03;;
68792;SDS011;55778;54.346;10.210;2023-05-16T01:47:51;5.72;;;2.15;;
68792;SDS011;55778;54.346;10.210;2023-05-16T01:50:22;8.40;;;2.40;;
68792;SDS011;55778;54.346;10.210;2023-05-16T01:52:55;5.82;;;2.03;;
68792;SDS011;55778;54.346;10.210;2023-05-16T01:55:34;4.50;;;1.90;;
68792;SDS011;55778;54.346;10.210;2023-05-16T01:58:03;7.43;;;1.92;;
68792;SDS011;55778;54.346;10.210;2023-05-16T02:00:31;6.13;;;1.75;;
68792;SDS011;55778;54.346;10.210;2023-05-16T02:02:57;6.40;;;1.63;;
68792;SDS011;55778;54.346;10.210;2023-05-16T02:05:22;9.15;;;2.20;;
68792;SDS011;55778;54.346;10.210;2023-05-16T02:07:47;7.43;;;1.60;;
68792;SDS011;55778;54.346;10.210;2023-05-16T02:10:13;4.80;;;1.40;;
68792;SDS011;55778;54.346;10.210;2023-05-16T02:12:39;5.57;;;2.03;;
68792;SDS011;55778;54.346;10.210;2023-05-16T02:15:05;5.45;;;1.60;;
68792;SDS011;55778;54.346;10.210;2023-05-16T02:17:30;6.75;;;1.77;;
68792;SDS011;55778;54.346;10.210;2023-05-16T02:19:56;3.38;;;1.60;;
68792;SDS011;55778;54.346;10.210;2023-05-16T02:22:21;6.32;;;1.63;;
68792;SDS011;55778;54.346;10.210;2023-05-16T02:24:46;6.22;;;1.55;;
68792;SDS011;55778;54.346;10.210;2023-05-16T02:27:12;8.45;;;1.80;;
68792;SDS011;55778;54.346;10.210;2023-05-16T02:29:37;3.15;;;1.30;;
68792;SDS011;55778;54.346;10.210;2023-05-16T02:32:02;7.10;;;1.67;;
68792;SDS011;55778;54.346;10.210;2023-05-16T02:34:28;11.50;;;1.73;;
68792;SDS011;55778;54.346;10.210;2023-05-16T02:36:54;7.30;;;1.88;;
68792;SDS011;55778;54.346;10.210;2023-05-16T02:39:19;7.43;;;1.65;;
68792;SDS011;55778;54.346;10.210;2023-05-16T02:41:45;7.75;;;2.35;;
68792;SDS011;55778;54.346;10.210;2023-05-16T02:44:10;8.95;;;1.80;;
68792;SDS011;55778;54.346;10.210;2023-05-16T02:46:35;10.95;;;1.73;;
68792;SDS011;55778;54.346;10.210;2023-05-16T02:49:01;5.93;;;3.03;;
68792;SDS011;55778;54.346;10.210;2023-05-16T02:51:27;4.72;;;1.50;;
68792;SDS011;55778;54.346;10.210;2023-05-16T02:53:53;6.55;;;1.70;;
68792;SDS011;55778;54.346;10.210;2023-05-16T02:56:21;9.30;;;2.08;;
68792;SDS011;55778;54.346;10.210;2023-05-16T02:58:47;9.50;;;1.65;;
68792;SDS011;55778;54.346;10.210;2023-05-16T03:01:14;7.63;;;2.08;;
68792;SDS011;55778;54.346;10.210;2023-05-16T03:03:40;6.90;;;2.25;;
68792;SDS011;55778;54.346;10.210;2023-05-16T03:06:06;9.25;;;1.80;;
68792;SDS011;55778;54.346;10.210;2023-05-16T03:08:31;9.40;;;1.77;;
68792;SDS011;55778;54.346;10.210;2023-05-16T03:10:57;11.27;;;2.08;;
68792;SDS011;55778;54.346;10.210;2023-05-16T03:13:22;11.00;;;1.90;;
68792;SDS011;55778;54.346;10.210;2023-05-16T03:15:48;14.40;;;2.80;;
68792;SDS011;55778;54.346;10.210;2023-05-16T03:18:13;10.38;;;2.13;;
68792;SDS011;55778;54.346;10.210;2023-05-16T03:20:39;9.70;;;2.42;;
68792;SDS011;55778;54.346;10.210;2023-05-16T03:23:04;11.02;;;2.42;;
68792;SDS011;55778;54.346;10.210;2023-05-16T03:25:32;12.43;;;2.00;;
68792;SDS011;55778;54.346;10.210;2023-05-16T03:27:58;8.90;;;2.25;;
68792;SDS011;55778;54.346;10.210;2023-05-16T03:30:23;11.27;;;1.85;;
68792;SDS011;55778;54.346;10.210;2023-05-16T03:32:50;10.70;;;1.55;;
68792;SDS011;55778;54.346;10.210;2023-05-16T03:35:16;12.80;;;2.10;;
68792;SDS011;55778;54.346;10.210;2023-05-16T03:37:41;8.27;;;1.65;;
68792;SDS011;55778;54.346;10.210;2023-05-16T03:40:07;9.55;;;2.00;;
68792;SDS011;55778;54.346;10.210;2023-05-16T03:42:33;9.38;;;2.25;;
68792;SDS011;55778;54.346;10.210;2023-05-16T03:44:59;14.88;;;2.60;;
68792;SDS011;55778;54.346;10.210;2023-05-16T03:47:24;10.70;;;2.50;;
68792;SDS011;55778;54.346;10.210;2023-05-16T03:49:55;13.02;;;2.03;;
68792;SDS011;55778;54.346;10.210;2023-05-16T03:52:20;12.60;;;1.90;;
68792;SDS011;55778;54.346;10.210;2023-05-16T03:54:46;10.65;;;2.00;;
68792;SDS011;55778;54.346;10.210;2023-05-16T03:57:12;8.32;;;1.77;;
68792;SDS011;55778;54.346;10.210;2023-05-16T03:59:37;9.15;;;2.13;;
68792;SDS011;55778;54.346;10.210;2023-05-16T04:02:03;9.10;;;2.22;;
68792;SDS011;55778;54.346;10.210;2023-05-16T04:04:29;8.25;;;1.58;;
68792;SDS011;55778;54.346;10.210;2023-05-16T04:06:54;12.23;;;2.35;;
68792;SDS011;55778;54.346;10.210;2023-05-16T04:09:20;12.85;;;2.00;;
68792;SDS011;55778;54.346;10.210;2023-05-16T04:11:45;5.38;;;1.90;;
68792;SDS011;55778;54.346;10.210;2023-05-16T04:14:11;6.47;;;1.90;;
68792;SDS011;55778;54.346;10.210;2023-05-16T04:16:36;10.15;;;1.75;;
68792;SDS011;55778;54.346;10.210;2023-05-16T04:19:01;13.18;;;2.08;;
68792;SDS011;55778;54.346;10.210;2023-05-16T04:21:27;7.95;;;1.50;;
68792;SDS011;55778;54.346;10.210;2023-05-16T04:23:53;7.18;;;1.77;;
68792;SDS011;55778;54.346;10.210;2023-05-16T04:26:18;11.65;;;1.85;;
68792;SDS011;55778;54.346;10.210;2023-05-16T04:28:46;11.95;;;1.75;;
68792;SDS011;55778;54.346;10.210;2023-05-16T04:31:11;7.55;;;2.03;;
68792;SDS011;55778;54.346;10.210;2023-05-16T04:33:39;8.43;;;1.65;;
68792;SDS011;55778;54.346;10.210;2023-05-16T04:36:04;9.18;;;1.88;;
68792;SDS011;55778;54.346;10.210;2023-05-16T04:38:30;7.63;;;1.73;;
68792;SDS011;55778;54.346;10.210;2023-05-16T04:40:56;9.68;;;2.60;;
68792;SDS011;55778;54.346;10.210;2023-05-16T04:43:22;8.60;;;1.75;;
68792;SDS011;55778;54.346;10.210;2023-05-16T04:45:47;9.27;;;2.45;;
68792;SDS011;55778;54.346;10.210;2023-05-16T04:48:13;11.48;;;1.48;;
68792;SDS011;55778;54.346;10.210;2023-05-16T04:50:39;9.30;;;1.58;;
68792;SDS011;55778;54.346;10.210;2023-05-16T04:53:05;8.07;;;1.83;;
68792;SDS011;55778;54.346;10.210;2023-05-16T04:55:30;9.70;;;1.70;;
68792;SDS011;55778;54.346;10.210;2023-05-16T04:57:56;7.75;;;1.98;;
68792;SDS011;55778;54.346;10.210;2023-05-16T05:00:21;9.65;;;1.25;;
68792;SDS011;55778;54.346;10.210;2023-05-16T05:02:47;10.25;;;2.47;;
68792;SDS011;55778;54.346;10.210;2023-05-16T05:05:12;12.88;;;2.15;;
68792;SDS011;55778;54.346;10.210;2023-05-16T05:07:38;8.90;;;2.00;;
68792;SDS011;55778;54.346;10.210;2023-05-16T05:10:04;15.38;;;1.70;;
68792;SDS011;55778;54.346;10.210;2023-05-16T05:12:31;10.23;;;2.33;;
68792;SDS011;55778;54.346;10.210;2023-05-16T05:14:57;14.95;;;1.75;;
68792;SDS011;55778;54.346;10.210;2023-05-16T05:17:22;13.43;;;1.95;;
68792;SDS011;55778;54.346;10.210;2023-05-16T05:19:47;10.80;;;1.95;;
68792;SDS011;55778;54.346;10.210;2023-05-16T05:22:13;8.05;;;1.70;;
68792;SDS011;55778;54.346;10.210;2023-05-16T05:24:39;5.28;;;1.48;;
68792;SDS011;55778;54.346;10.210;2023-05-16T05:27:04;8.07;;;1.50;;
68792;SDS011;55778;54.346;10.210;2023-05-16T05:29:30;9.07;;;1.33;;
68792;SDS011;55778;54.346;10.210;2023-05-16T05:31:55;12.70;;;1.77;;
68792;SDS011;55778;54.346;10.210;2023-05-16T05:34:21;5.80;;;1.80;;
68792;SDS011;55778;54.346;10.210;2023-05-16T05:36:46;8.88;;;1.45;;
68792;SDS011;55778;54.346;10.210;2023-05-16T05:39:12;3.65;;;1.30;;
68792;SDS011;55778;54.346;10.210;2023-05-16T05:41:37;11.57;;;2.00;;
68792;SDS011;55778;54.346;10.210;2023-05-16T05:44:03;7.00;;;1.65;;
68792;SDS011;55778;54.346;10.210;2023-05-16T05:46:28;3.85;;;1.00;;
68792;SDS011;55778;54.346;10.210;2023-05-16T05:48:54;7.00;;;1.30;;
68792;SDS011;55778;54.346;10.210;2023-05-16T05:51:19;6.97;;;1.35;;
68792;SDS011;55778;54.346;10.210;2023-05-16T05:53:45;8.88;;;1.48;;
68792;SDS011;55778;54.346;10.210;2023-05-16T05:56:10;10.23;;;1.52;;
68792;SDS011;55778;54.346;10.210;2023-05-16T05:58:36;7.70;;;1.40;;
68792;SDS011;55778;54.346;10.210;2023-05-16T06:01:03;7.65;;;2.03;;
68792;SDS011;55778;54.346;10.210;2023-05-16T06:03:28;7.70;;;1.50;;
68792;SDS011;55778;54.346;10.210;2023-05-16T06:05:53;8.88;;;2.05;;
68792;SDS011;55778;54.346;10.210;2023-05-16T06:08:19;9.23;;;1.50;;
68792;SDS011;55778;54.346;10.210;2023-05-16T06:10:44;4.13;;;1.15;;
68792;SDS011;55778;54.346;10.210;2023-05-16T06:13:10;7.80;;;1.88;;
68792;SDS011;55778;54.346;10.210;2023-05-16T06:15:35;7.20;;;1.50;;
68792;SDS011;55778;54.346;10.210;2023-05-16T06:18:01;6.15;;;1.25;;
68792;SDS011;55778;54.346;10.210;2023-05-16T06:20:26;7.13;;;1.25;;
68792;SDS011;55778;54.346;10.210;2023-05-16T06:22:52;8.40;;;1.70;;
68792;SDS011;55778;54.346;10.210;2023-05-16T06:25:17;4.55;;;1.10;;
68792;SDS011;55778;54.346;10.210;2023-05-16T06:27:43;9.15;;;1.40;;
68792;SDS011;55778;54.346;10.210;2023-05-16T06:30:09;6.50;;;1.20;;
68792;SDS011;55778;54.346;10.210;2023-05-16T06:32:35;8.52;;;1.60;;
68792;SDS011;55778;54.346;10.210;2023-05-16T06:35:01;6.47;;;1.10;;
68792;SDS011;55778;54.346;10.210;2023-05-16T06:37:26;11.45;;;1.25;;
68792;SDS011;55778;54.346;10.210;2023-05-16T06:39:52;7.35;;;1.35;;
68792;SDS011;55778;54.346;10.210;2023-05-16T06:42:17;4.53;;;1.25;;
68792;SDS011;55778;54.346;10.210;2023-05-16T06:44:44;2.30;;;0.88;;
68792;SDS011;55778;54.346;10.210;2023-05-16T06:47:10;10.52;;;1.13;;
68792;SDS011;55778;54.346;10.210;2023-05-16T06:49:36;7.15;;;1.50;;
68792;SDS011;55778;54.346;10.210;2023-05-16T06:52:01;5.95;;;1.25;;
68792;SDS011;55778;54.346;10.210;2023-05-16T06:54:27;5.20;;;1.00;;
68792;SDS011;55778;54.346;10.210;2023-05-16T06:56:52;6.88;;;1.50;;
68792;SDS011;55778;54.346;10.210;2023-05-16T06:59:17;3.30;;;1.10;;
68792;SDS011;55778;54.346;10.210;2023-05-16T07:01:43;7.60;;;1.52;;
68792;SDS011;55778;54.346;10.210;2023-05-16T07:04:08;11.27;;;1.52;;
68792;SDS011;55778;54.346;10.210;2023-05-16T07:06:33;8.25;;;1.20;;
68792;SDS011;55778;54.346;10.210;2023-05-16T07:08:59;6.43;;;1.00;;
68792;SDS011;55778;54.346;10.210;2023-05-16T07:11:26;13.52;;;1.60;;
68792;SDS011;55778;54.346;10.210;2023-05-16T07:13:51;8.73;;;1.20;;
68792;SDS011;55778;54.346;10.210;2023-05-16T07:16:16;3.78;;;1.40;;
68792;SDS011;55778;54.346;10.210;2023-05-16T07:18:42;5.78;;;1.50;;
68792;SDS011;55778;54.346;10.210;2023-05-16T07:21:07;7.10;;;1.23;;
68792;SDS011;55778;54.346;10.210;2023-05-16T07:23:33;5.63;;;1.20;;
68792;SDS011;55778;54.346;10.210;2023-05-16T07:25:58;5.90;;;0.90;;
68792;SDS011;55778;54.346;10.210;2023-05-16T07:28:23;5.80;;;1.77;;
68792;SDS011;55778;54.346;10.210;2023-05-16T07:30:49;6.03;;;1.20;;
68792;SDS011;55778;54.346;10.210;2023-05-16T07:33:14;4.93;;;0.88;;
68792;SDS011;55778;54.346;10.210;2023-05-16T07:35:40;5.30;;;1.55;;
68792;SDS011;55778;54.346;10.210;2023-05-16T07:38:05;9.50;;;2.70;;
68792;SDS011;55778;54.346;10.210;2023-05-16T07:40:31;7.18;;;1.13;;
68792;SDS011;55778;54.346;10.210;2023-05-16T07:42:56;3.63;;;1.05;;
68792;SDS011;55778;54.346;10.210;2023-05-16T07:45:21;4.93;;;0.88;;
68792;SDS011;55778;54.346;10.210;2023-05-16T07:47:47;3.80;;;0.90;;
68792;SDS011;55778;54.346;10.210;2023-05-16T07:50:12;6.30;;;1.30;;
68792;SDS011;55778;54.346;10.210;2023-05-16T07:52:38;8.65;;;1.20;;
68792;SDS011;55778;54.346;10.210;2023-05-16T07:55:03;6.20;;;1.65;;
68792;SDS011;55778;54.346;10.210;2023-05-16T07:57:29;5.55;;;1.10;;
68792;SDS011;55778;54.346;10.210;2023-05-16T07:59:54;5.75;;;1.02;;
68792;SDS011;55778;54.346;10.210;2023-05-16T08:02:20;4.20;;;1.20;;
68792;SDS011;55778;54.346;10.210;2023-05-16T08:04:49;8.80;;;1.30;;
68792;SDS011;55778;54.346;10.210;2023-05-16T08:07:14;4.38;;;1.02;;
68792;SDS011;55778;54.346;10.210;2023-05-16T08:09:40;6.28;;;1.20;;
68792;SDS011;55778;54.346;10.210;2023-05-16T08:12:05;4.18;;;0.90;;
68792;SDS011;55778;54.346;10.210;2023-05-16T08:14:31;6.55;;;1.10;;
68792;SDS011;55778;54.346;10.210;2023-05-16T08:16:58;5.57;;;0.90;;
68792;SDS011;55778;54.346;10.210;2023-05-16T08:19:24;8.57;;;1.20;;
68792;SDS011;55778;54.346;10.210;2023-05-16T08:21:50;5.15;;;1.10;;
68792;SDS011;55778;54.346;10.210;2023-05-16T08:24:15;4.95;;;0.82;;
68792;SDS011;55778;54.346;10.210;2023-05-16T08:26:40;4.47;;;1.27;;
68792;SDS011;55778;54.346;10.210;2023-05-16T08:29:06;2.15;;;0.85;;
68792;SDS011;55778;54.346;10.210;2023-05-16T08:31:31;4.20;;;0.90;;
68792;SDS011;55778;54.346;10.210;2023-05-16T08:33:57;4.30;;;0.80;;
68792;SDS011;55778;54.346;10.210;2023-05-16T08:36:22;4.28;;;1.10;;
68792;SDS011;55778;54.346;10.210;2023-05-16T08:38:50;6.80;;;1.50;;
68792;SDS011;55778;54.346;10.210;2023-05-16T08:41:16;6.40;;;1.20;;
68792;SDS011;55778;54.346;10.210;2023-05-16T08:43:41;4.45;;;0.77;;
68792;SDS011;55778;54.346;10.210;2023-05-16T08:46:07;3.45;;;1.10;;
68792;SDS011;55778;54.346;10.210;2023-05-16T08:48:32;6.68;;;1.35;;
68792;SDS011;55778;54.346;10.210;2023-05-16T08:50:59;6.20;;;0.93;;
68792;SDS011;55778;54.346;10.210;2023-05-16T08:53:30;5.00;;;1.00;;
68792;SDS011;55778;54.346;10.210;2023-05-16T08:55:59;6.60;;;1.00;;
68792;SDS011;55778;54.346;10.210;2023-05-16T08:58:25;5.15;;;1.05;;
68792;SDS011;55778;54.346;10.210;2023-05-16T09:00:53;3.90;;;0.98;;
68792;SDS011;55778;54.346;10.210;2023-05-16T09:03:19;5.35;;;1.05;;
68792;SDS011;55778;54.346;10.210;2023-05-16T09:05:45;8.85;;;1.20;;
68792;SDS011;55778;54.346;10.210;2023-05-16T09:08:11;5.95;;;1.08;;
68792;SDS011;55778;54.346;10.210;2023-05-16T09:10:36;9.65;;;1.40;;
68792;SDS011;55778;54.346;10.210;2023-05-16T09:13:02;4.00;;;1.40;;
68792;SDS011;55778;54.346;10.210;2023-05-16T09:15:31;4.80;;;0.90;;
68792;SDS011;55778;54.346;10.210;2023-05-16T09:17:59;12.63;;;1.55;;
68792;SDS011;55778;54.346;10.210;2023-05-16T09:20:25;6.60;;;1.17;;
68792;SDS011;55778;54.346;10.210;2023-05-16T09:25:17;7.55;;;1.05;;
68792;SDS011;55778;54.346;10.210;2023-05-16T09:27:45;4.38;;;1.17;;
68792;SDS011;55778;54.346;10.210;2023-05-16T09:30:13;7.05;;;1.52;;
68792;SDS011;55778;54.346;10.210;2023-05-16T09:32:42;6.68;;;1.20;;
68792;SDS011;55778;54.346;10.210;2023-05-16T09:35:09;6.07;;;1.35;;
68792;SDS011;55778;54.346;10.210;2023-05-16T09:37:44;5.78;;;0.90;;
68792;SDS011;55778;54.346;10.210;2023-05-16T09:42:36;5.53;;;1.20;;
68792;SDS011;55778;54.346;10.210;2023-05-16T09:45:01;6.03;;;1.02;;
68792;SDS011;55778;54.346;10.210;2023-05-16T09:47:27;4.63;;;1.38;;
68792;SDS011;55778;54.346;10.210;2023-05-16T09:49:52;6.75;;;1.30;;
68792;SDS011;55778;54.346;10.210;2023-05-16T09:52:18;8.27;;;1.65;;
68792;SDS011;55778;54.346;10.210;2023-05-16T09:54:45;7.72;;;1.40;;
68792;SDS011;55778;54.346;10.210;2023-05-16T09:57:16;5.10;;;1.20;;
68792;SDS011;55778;54.346;10.210;2023-05-16T10:02:09;7.22;;;1.77;;
68792;SDS011;55778;54.346;10.210;2023-05-16T10:04:34;6.78;;;1.33;;
68792;SDS011;55778;54.346;10.210;2023-05-16T10:07:03;11.05;;;1.83;;
68792;SDS011;55778;54.346;10.210;2023-05-16T10:09:32;7.63;;;1.40;;
68792;SDS011;55778;54.346;10.210;2023-05-16T10:12:02;4.57;;;1.13;;
68792;SDS011;55778;54.346;10.210;2023-05-16T10:14:34;7.85;;;1.27;;
68792;SDS011;55778;54.346;10.210;2023-05-16T10:17:05;6.15;;;1.20;;
68792;SDS011;55778;54.346;10.210;2023-05-16T10:19:31;3.72;;;1.15;;
68792;SDS011;55778;54.346;10.210;2023-05-16T10:22:03;7.32;;;1.10;;
68792;SDS011;55778;54.346;10.210;2023-05-16T10:24:38;5.72;;;1.00;;
68792;SDS011;55778;54.346;10.210;2023-05-16T10:27:12;5.25;;;0.85;;
68792;SDS011;55778;54.346;10.210;2023-05-16T10:29:39;5.85;;;1.00;;
68792;SDS011;55778;54.346;10.210;2023-05-16T10:32:06;6.35;;;1.13;;
68792;SDS011;55778;54.346;10.210;2023-05-16T10:34:32;6.55;;;1.00;;
68792;SDS011;55778;54.346;10.210;2023-05-16T10:36:58;7.43;;;1.08;;
68792;SDS011;55778;54.346;10.210;2023-05-16T10:39:24;6.88;;;1.73;;
68792;SDS011;55778;54.346;10.210;2023-05-16T10:41:51;6.28;;;1.40;;
68792;SDS011;55778;54.346;10.210;2023-05-16T10:44:17;7.93;;;1.70;;
68792;SDS011;55778;54.346;10.210;2023-05-16T10:46:42;9.98;;;1.83;;
68792;SDS011;55778;54.346;10.210;2023-05-16T10:49:21;4.43;;;0.90;;
68792;SDS011;55778;54.346;10.210;2023-05-16T10:52:07;6.78;;;1.17;;
68792;SDS011;55778;54.346;10.210;2023-05-16T10:54:34;6.07;;;1.00;;
68792;SDS011;55778;54.346;10.210;2023-05-16T10:57:04;8.32;;;1.80;;
68792;SDS011;55778;54.346;10.210;2023-05-16T10:59:41;9.05;;;1.83;;
68792;SDS011;55778;54.346;10.210;2023-05-16T11:02:21;11.40;;;1.83;;
68792;SDS011;55778;54.346;10.210;2023-05-16T11:04:51;10.05;;;1.35;;
68792;SDS011;55778;54.346;10.210;2023-05-16T11:07:19;5.50;;;1.20;;
68792;SDS011;55778;54.346;10.210;2023-05-16T11:10:03;5.82;;;1.00;;
68792;SDS011;55778;54.346;10.210;2023-05-16T11:12:48;4.00;;;1.20;;
68792;SDS011;55778;54.346;10.210;2023-05-16T11:15:18;5.97;;;1.05;;
68792;SDS011;55778;54.346;10.210;2023-05-16T11:17:48;4.80;;;0.90;;
68792;SDS011;55778;54.346;10.210;2023-05-16T11:20:23;6.25;;;1.50;;
68792;SDS011;55778;54.346;10.210;2023-05-16T11:22:50;8.27;;;1.60;;
68792;SDS011;55778;54.346;10.210;2023-05-16T11:25:16;8.73;;;1.30;;
68792;SDS011;55778;54.346;10.210;2023-05-16T11:28:00;6.50;;;1.50;;
68792;SDS011;55778;54.346;10.210;2023-05-16T11:30:26;12.32;;;1.38;;
68792;SDS011;55778;54.346;10.210;2023-05-16T11:32:51;8.02;;;1.50;;
68792;SDS011;55778;54.346;10.210;2023-05-16T11:35:16;6.90;;;1.45;;
68792;SDS011;55778;54.346;10.210;2023-05-16T11:37:46;5.78;;;1.02;;
68792;SDS011;55778;54.346;10.210;2023-05-16T11:40:12;5.78;;;1.67;;
68792;SDS011;55778;54.346;10.210;2023-05-16T11:42:38;7.72;;;1.60;;
68792;SDS011;55778;54.346;10.210;2023-05-16T11:45:06;9.57;;;1.63;;
68792;SDS011;55778;54.346;10.210;2023-05-16T11:47:32;11.25;;;1.52;;
68792;SDS011;55778;54.346;10.210;2023-05-16T11:50:00;23.17;;;2.10;;
68792;SDS011;55778;54.346;10.210;2023-05-16T11:52:29;11.52;;;1.48;;
68792;SDS011;55778;54.346;10.210;2023-05-16T11:54:55;8.43;;;1.42;;
68792;SDS011;55778;54.346;10.210;2023-05-16T11:59:51;9.10;;;1.20;;
68792;SDS011;55778;54.346;10.210;2023-05-16T12:02:17;7.03;;;1.42;;
68792;SDS011;55778;54.346;10.210;2023-05-16T12:04:45;9.45;;;1.77;;
68792;SDS011;55778;54.346;10.210;2023-05-16T12:07:11;7.25;;;1.15;;
68792;SDS011;55778;54.346;10.210;2023-05-16T12:09:36;9.48;;;1.52;;
68792;SDS011;55778;54.346;10.210;2023-05-16T12:12:03;8.85;;;1.40;;
68792;SDS011;55778;54.346;10.210;2023-05-16T12:14:29;9.80;;;1.52;;
68792;SDS011;55778;54.346;10.210;2023-05-16T12:16:54;4.75;;;0.93;;
68792;SDS011;55778;54.346;10.210;2023-05-16T12:19:20;5.97;;;1.35;;
68792;SDS011;55778;54.346;10.210;2023-05-16T12:21:46;9.55;;;1.42;;
68792;SDS011;55778;54.346;10.210;2023-05-16T12:24:12;9.60;;;1.83;;
68792;SDS011;55778;54.346;10.210;2023-05-16T12:26:38;5.30;;;1.20;;
68792;SDS011;55778;54.346;10.210;2023-05-16T12:29:04;4.15;;;1.00;;
68792;SDS011;55778;54.346;10.210;2023-05-16T12:31:31;5.07;;;1.45;;
68792;SDS011;55778;54.346;10.210;2023-05-16T12:34:00;5.43;;;1.50;;
68792;SDS011;55778;54.346;10.210;2023-05-16T12:36:29;7.38;;;1.00;;
68792;SDS011;55778;54.346;10.210;2023-05-16T12:39:00;5.22;;;1.23;;
68792;SDS011;55778;54.346;10.210;2023-05-16T12:41:29;5.15;;;1.10;;
68792;SDS011;55778;54.346;10.210;2023-05-16T12:44:14;6.75;;;1.35;;
68792;SDS011;55778;54.346;10.210;2023-05-16T12:46:45;5.70;;;1.15;;
68792;SDS011;55778;54.346;10.210;2023-05-16T12:49:12;4.78;;;1.10;;
68792;SDS011;55778;54.346;10.210;2023-05-16T12:51:38;6.07;;;1.23;;
68792;SDS011;55778;54.346;10.210;2023-05-16T12:54:10;3.50;;;0.75;;
68792;SDS011;55778;54.346;10.210;2023-05-16T12:56:37;11.52;;;1.35;;
68792;SDS011;55778;54.346;10.210;2023-05-16T12:59:03;4.22;;;1.17;;
68792;SDS011;55778;54.346;10.210;2023-05-16T13:01:28;4.68;;;0.88;;
68792;SDS011;55778;54.346;10.210;2023-05-16T13:03:57;2.85;;;0.77;;
68792;SDS011;55778;54.346;10.210;2023-05-16T13:06:32;6.88;;;0.80;;
68792;SDS011;55778;54.346;10.210;2023-05-16T13:08:58;4.40;;;0.93;;
68792;SDS011;55778;54.346;10.210;2023-05-16T13:11:50;3.25;;;0.90;;
68792;SDS011;55778;54.346;10.210;2023-05-16T13:14:17;4.35;;;0.93;;
68792;SDS011;55778;54.346;10.210;2023-05-16T13:16:42;5.05;;;0.90;;
68792;SDS011;55778;54.346;10.210;2023-05-16T13:19:14;7.75;;;1.00;;
68792;SDS011;55778;54.346;10.210;2023-05-16T13:21:41;3.83;;;1.10;;
68792;SDS011;55778;54.346;10.210;2023-05-16T13:24:07;10.80;;;1.98;;
68792;SDS011;55778;54.346;10.210;2023-05-16T13:26:32;5.03;;;0.98;;
68792;SDS011;55778;54.346;10.210;2023-05-16T13:28:58;4.75;;;1.08;;
68792;SDS011;55778;54.346;10.210;2023-05-16T13:31:26;5.88;;;1.17;;
68792;SDS011;55778;54.346;10.210;2023-05-16T13:33:51;6.78;;;1.20;;
68792;SDS011;55778;54.346;10.210;2023-05-16T13:36:17;7.38;;;1.35;;
68792;SDS011;55778;54.346;10.210;2023-05-16T13:38:42;6.78;;;1.30;;
68792;SDS011;55778;54.346;10.210;2023-05-16T13:41:07;6.70;;;1.40;;
68792;SDS011;55778;54.346;10.210;2023-05-16T13:43:33;6.22;;;1.10;;
68792;SDS011;55778;54.346;10.210;2023-05-16T13:45:58;2.45;;;0.77;;
68792;SDS011;55778;54.346;10.210;2023-05-16T13:48:24;2.67;;;0.80;;
68792;SDS011;55778;54.346;10.210;2023-05-16T13:50:50;9.10;;;0.93;;
68792;SDS011;55778;54.346;10.210;2023-05-16T13:53:17;5.05;;;0.98;;
68792;SDS011;55778;54.346;10.210;2023-05-16T13:55:42;1.90;;;0.90;;
68792;SDS011;55778;54.346;10.210;2023-05-16T13:58:08;7.10;;;1.10;;
68792;SDS011;55778;54.346;10.210;2023-05-16T14:00:33;5.88;;;1.17;;
68792;SDS011;55778;54.346;10.210;2023-05-16T14:02:59;2.50;;;0.85;;
68792;SDS011;55778;54.346;10.210;2023-05-16T14:05:24;8.90;;;1.63;;
68792;SDS011;55778;54.346;10.210;2023-05-16T14:07:50;7.25;;;1.25;;
68792;SDS011;55778;54.346;10.210;2023-05-16T14:10:16;6.28;;;0.90;;
68792;SDS011;55778;54.346;10.210;2023-05-16T14:12:41;5.05;;;1.00;;
68792;SDS011;55778;54.346;10.210;2023-05-16T14:15:07;1.73;;;0.60;;
68792;SDS011;55778;54.346;10.210;2023-05-16T14:17:36;7.45;;;1.30;;
68792;SDS011;55778;54.346;10.210;2023-05-16T14:20:01;5.50;;;1.15;;
68792;SDS011;55778;54.346;10.210;2023-05-16T14:22:28;7.00;;;1.50;;
68792;SDS011;55778;54.346;10.210;2023-05-16T14:24:53;4.65;;;1.13;;
68792;SDS011;55778;54.346;10.210;2023-05-16T14:27:18;6.10;;;1.00;;
68792;SDS011;55778;54.346;10.210;2023-05-16T14:29:44;4.20;;;1.38;;
68792;SDS011;55778;54.346;10.210;2023-05-16T14:32:12;5.07;;;0.90;;
68792;SDS011;55778;54.346;10.210;2023-05-16T14:34:39;5.15;;;1.20;;
68792;SDS011;55778;54.346;10.210;2023-05-16T14:37:04;4.72;;;1.13;;
68792;SDS011;55778;54.346;10.210;2023-05-16T14:39:29;8.18;;;1.38;;
68792;SDS011;55778;54.346;10.210;2023-05-16T14:41:55;4.72;;;1.10;;
68792;SDS011;55778;54.346;10.210;2023-05-16T14:44:21;7.78;;;1.67;;
68792;SDS011;55778;54.346;10.210;2023-05-16T14:46:48;3.88;;;1.30;;
68792;SDS011;55778;54.346;10.210;2023-05-16T14:49:14;4.60;;;1.27;;
68792;SDS011;55778;54.346;10.210;2023-05-16T14:51:39;6.32;;;1.33;;